sensor_id;sensor_type;location;lat;lon;timestamp;P1;durP1;ratioP1;P2;durP2;ratioP2
47337;SDS011;33069;51.970;5.892;2023-03-16T00:02:04;7.03;;;4.45;;
47337;SDS011;33069;51.970;5.892;2023-03-16T00:04:30;8.52;;;4.72;;
47337;SDS011;33069;51.970;5.892;2023-03-16T00:06:57;7.38;;;4.85;;
47337;SDS011;33069;51.970;5.892;2023-03-16T00:09:23;8.60;;;4.57;;
47337;SDS011;33069;51.970;5.892;2023-03-16T00:11:55;7.13;;;4.45;;
47337;SDS011;33069;51.970;5.892;2023-03-16T00:14:22;7.07;;;4.25;;
47337;SDS011;33069;51.970;5.892;2023-03-16T00:16:48;11.07;;;4.53;;
47337;SDS011;33069;51.970;5.892;2023-03-16T00:19:14;8.55;;;5.78;;
47337;SDS011;33069;51.970;5.892;2023-03-16T00:21:40;7.57;;;4.50;;
47337;SDS011;33069;51.970;5.892;2023-03-16T00:24:06;5.50;;;4.03;;
47337;SDS011;33069;51.970;5.892;2023-03-16T00:26:31;9.07;;;3.97;;
47337;SDS011;33069;51.970;5.892;2023-03-16T00:28:57;7.65;;;4.10;;
47337;SDS011;33069;51.970;5.892;2023-03-16T00:31:23;6.88;;;4.78;;
47337;SDS011;33069;51.970;5.892;2023-03-16T00:33:51;10.15;;;4.13;;
47337;SDS011;33069;51.970;5.892;2023-03-16T00:36:17;8.68;;;4.28;;
47337;SDS011;33069;51.970;5.892;2023-03-16T00:38:42;6.40;;;3.88;;
47337;SDS011;33069;51.970;5.892;2023-03-16T00:41:13;6.75;;;4.25;;
47337;SDS011;33069;51.970;5.892;2023-03-16T00:43:40;5.70;;;4.20;;
47337;SDS011;33069;51.970;5.892;2023-03-16T00:46:12;5.80;;;4.20;;
47337;SDS011;33069;51.970;5.892;2023-03-16T00:48:42;6.30;;;4.25;;
47337;SDS011;33069;51.970;5.892;2023-03-16T00:51:10;9.38;;;4.53;;
47337;SDS011;33069;51.970;5.892;2023-03-16T00:53:39;6.32;;;4.43;;
47337;SDS011;33069;51.970;5.892;2023-03-16T00:56:06;6.28;;;3.85;;
47337;SDS011;33069;51.970;5.892;2023-03-16T00:58:34;7.00;;;4.15;;
47337;SDS011;33069;51.970;5.892;2023-03-16T01:03:35;9.50;;;4.20;;
47337;SDS011;33069;51.970;5.892;2023-03-16T01:06:04;6.78;;;4.40;;
47337;SDS011;33069;51.970;5.892;2023-03-16T01:08:31;8.85;;;4.63;;
47337;SDS011;33069;51.970;5.892;2023-03-16T01:11:16;6.70;;;4.00;;
47337;SDS011;33069;51.970;5.892;2023-03-16T01:13:43;8.02;;;4.35;;
47337;SDS011;33069;51.970;5.892;2023-03-16T01:16:11;8.57;;;3.88;;
47337;SDS011;33069;51.970;5.892;2023-03-16T01:18:37;9.07;;;4.38;;
47337;SDS011;33069;51.970;5.892;2023-03-16T01:21:03;7.80;;;4.60;;
47337;SDS011;33069;51.970;5.892;2023-03-16T01:23:32;7.80;;;4.32;;
47337;SDS011;33069;51.970;5.892;2023-03-16T01:25:58;7.18;;;4.35;;
47337;SDS011;33069;51.970;5.892;2023-03-16T01:28:25;10.43;;;4.72;;
47337;SDS011;33069;51.970;5.892;2023-03-16T01:30:52;7.85;;;4.50;;
47337;SDS011;33069;51.970;5.892;2023-03-16T01:33:21;8.68;;;4.75;;
47337;SDS011;33069;51.970;5.892;2023-03-16T01:35:55;12.23;;;5.85;;
47337;SDS011;33069;51.970;5.892;2023-03-16T01:38:23;8.93;;;5.60;;
47337;SDS011;33069;51.970;5.892;2023-03-16T01:40:49;8.07;;;4.00;;
47337;SDS011;33069;51.970;5.892;2023-03-16T01:43:17;7.05;;;4.40;;
47337;SDS011;33069;51.970;5.892;2023-03-16T01:51:14;9.70;;;4.60;;
47337;SDS011;33069;51.970;5.892;2023-03-16T01:56:13;10.82;;;5.18;;
47337;SDS011;33069;51.970;5.892;2023-03-16T01:58:43;6.68;;;4.30;;
47337;SDS011;33069;51.970;5.892;2023-03-16T02:01:10;10.00;;;4.68;;
47337;SDS011;33069;51.970;5.892;2023-03-16T02:03:38;6.32;;;4.55;;
47337;SDS011;33069;51.970;5.892;2023-03-16T02:06:14;8.70;;;4.30;;
47337;SDS011;33069;51.970;5.892;2023-03-16T02:08:43;7.85;;;4.50;;
47337;SDS011;33069;51.970;5.892;2023-03-16T02:11:12;7.70;;;4.45;;
47337;SDS011;33069;51.970;5.892;2023-03-16T02:13:42;7.28;;;4.47;;
47337;SDS011;33069;51.970;5.892;2023-03-16T02:16:09;8.48;;;4.60;;
47337;SDS011;33069;51.970;5.892;2023-03-16T02:18:38;5.60;;;4.35;;
47337;SDS011;33069;51.970;5.892;2023-03-16T02:21:05;6.90;;;4.45;;
47337;SDS011;33069;51.970;5.892;2023-03-16T02:23:33;6.03;;;4.63;;
47337;SDS011;33069;51.970;5.892;2023-03-16T02:26:36;7.80;;;4.20;;
47337;SDS011;33069;51.970;5.892;2023-03-16T02:31:38;9.43;;;5.03;;
47337;SDS011;33069;51.970;5.892;2023-03-16T02:34:04;7.43;;;4.25;;
47337;SDS011;33069;51.970;5.892;2023-03-16T02:36:31;6.53;;;4.35;;
47337;SDS011;33069;51.970;5.892;2023-03-16T02:38:58;9.35;;;5.20;;
47337;SDS011;33069;51.970;5.892;2023-03-16T02:41:24;8.88;;;4.38;;
47337;SDS011;33069;51.970;5.892;2023-03-16T02:43:54;7.60;;;4.45;;
47337;SDS011;33069;51.970;5.892;2023-03-16T02:46:25;7.22;;;4.63;;
47337;SDS011;33069;51.970;5.892;2023-03-16T02:51:27;10.27;;;4.40;;
47337;SDS011;33069;51.970;5.892;2023-03-16T02:53:54;6.72;;;4.78;;
47337;SDS011;33069;51.970;5.892;2023-03-16T02:56:20;7.45;;;4.70;;
47337;SDS011;33069;51.970;5.892;2023-03-16T02:58:46;10.95;;;4.70;;
47337;SDS011;33069;51.970;5.892;2023-03-16T03:01:12;6.50;;;4.15;;
47337;SDS011;33069;51.970;5.892;2023-03-16T03:03:38;7.70;;;4.50;;
47337;SDS011;33069;51.970;5.892;2023-03-16T03:06:04;6.22;;;4.38;;
47337;SDS011;33069;51.970;5.892;2023-03-16T03:08:30;7.20;;;4.47;;
47337;SDS011;33069;51.970;5.892;2023-03-16T03:10:57;9.50;;;4.78;;
47337;SDS011;33069;51.970;5.892;2023-03-16T03:13:23;8.95;;;4.50;;
47337;SDS011;33069;51.970;5.892;2023-03-16T03:15:48;6.95;;;3.92;;
47337;SDS011;33069;51.970;5.892;2023-03-16T03:18:14;7.80;;;5.28;;
47337;SDS011;33069;51.970;5.892;2023-03-16T03:20:40;6.00;;;4.22;;
47337;SDS011;33069;51.970;5.892;2023-03-16T03:23:06;6.28;;;4.10;;
47337;SDS011;33069;51.970;5.892;2023-03-16T03:25:31;8.20;;;4.28;;
47337;SDS011;33069;51.970;5.892;2023-03-16T03:27:58;8.98;;;4.75;;
47337;SDS011;33069;51.970;5.892;2023-03-16T03:30:26;9.27;;;4.50;;
47337;SDS011;33069;51.970;5.892;2023-03-16T03:32:52;8.00;;;4.57;;
47337;SDS011;33069;51.970;5.892;2023-03-16T03:35:18;8.55;;;4.30;;
47337;SDS011;33069;51.970;5.892;2023-03-16T03:37:45;7.47;;;4.38;;
47337;SDS011;33069;51.970;5.892;2023-03-16T03:40:13;7.43;;;4.47;;
47337;SDS011;33069;51.970;5.892;2023-03-16T03:42:40;5.00;;;4.10;;
47337;SDS011;33069;51.970;5.892;2023-03-16T03:45:06;7.22;;;4.03;;
47337;SDS011;33069;51.970;5.892;2023-03-16T03:47:36;6.25;;;4.25;;
47337;SDS011;33069;51.970;5.892;2023-03-16T03:50:02;7.43;;;4.25;;
47337;SDS011;33069;51.970;5.892;2023-03-16T03:52:28;6.25;;;4.10;;
47337;SDS011;33069;51.970;5.892;2023-03-16T03:54:54;7.45;;;3.95;;
47337;SDS011;33069;51.970;5.892;2023-03-16T03:57:19;7.85;;;4.32;;
47337;SDS011;33069;51.970;5.892;2023-03-16T03:59:45;5.43;;;3.90;;
47337;SDS011;33069;51.970;5.892;2023-03-16T04:02:11;6.55;;;3.80;;
47337;SDS011;33069;51.970;5.892;2023-03-16T04:04:38;7.85;;;3.80;;
47337;SDS011;33069;51.970;5.892;2023-03-16T04:07:05;8.10;;;4.30;;
47337;SDS011;33069;51.970;5.892;2023-03-16T04:09:30;9.55;;;4.38;;
47337;SDS011;33069;51.970;5.892;2023-03-16T04:11:59;6.38;;;4.25;;
47337;SDS011;33069;51.970;5.892;2023-03-16T04:14:26;9.82;;;4.60;;
47337;SDS011;33069;51.970;5.892;2023-03-16T04:16:52;6.47;;;4.07;;
47337;SDS011;33069;51.970;5.892;2023-03-16T04:19:19;6.90;;;4.40;;
47337;SDS011;33069;51.970;5.892;2023-03-16T04:21:45;7.85;;;4.80;;
47337;SDS011;33069;51.970;5.892;2023-03-16T04:24:11;10.45;;;4.95;;
47337;SDS011;33069;51.970;5.892;2023-03-16T04:26:39;6.63;;;4.10;;
47337;SDS011;33069;51.970;5.892;2023-03-16T04:29:05;6.43;;;4.57;;
47337;SDS011;33069;51.970;5.892;2023-03-16T04:31:31;7.82;;;4.22;;
47337;SDS011;33069;51.970;5.892;2023-03-16T04:33:57;9.15;;;4.53;;
47337;SDS011;33069;51.970;5.892;2023-03-16T04:36:23;6.15;;;4.68;;
47337;SDS011;33069;51.970;5.892;2023-03-16T04:38:49;6.65;;;4.70;;
47337;SDS011;33069;51.970;5.892;2023-03-16T04:41:15;7.35;;;4.13;;
47337;SDS011;33069;51.970;5.892;2023-03-16T04:43:42;7.25;;;5.40;;
47337;SDS011;33069;51.970;5.892;2023-03-16T04:46:08;9.30;;;4.70;;
47337;SDS011;33069;51.970;5.892;2023-03-16T04:48:34;7.72;;;4.90;;
47337;SDS011;33069;51.970;5.892;2023-03-16T04:51:00;8.55;;;4.78;;
47337;SDS011;33069;51.970;5.892;2023-03-16T04:53:28;8.35;;;4.60;;
47337;SDS011;33069;51.970;5.892;2023-03-16T04:55:54;9.15;;;4.90;;
47337;SDS011;33069;51.970;5.892;2023-03-16T04:58:20;8.80;;;4.93;;
47337;SDS011;33069;51.970;5.892;2023-03-16T05:00:47;7.22;;;4.72;;
47337;SDS011;33069;51.970;5.892;2023-03-16T05:03:13;7.05;;;4.95;;
47337;SDS011;33069;51.970;5.892;2023-03-16T05:05:39;7.82;;;4.88;;
47337;SDS011;33069;51.970;5.892;2023-03-16T05:08:06;7.35;;;5.00;;
47337;SDS011;33069;51.970;5.892;2023-03-16T05:10:32;8.32;;;5.05;;
47337;SDS011;33069;51.970;5.892;2023-03-16T05:12:59;7.00;;;4.50;;
47337;SDS011;33069;51.970;5.892;2023-03-16T05:15:25;7.63;;;4.65;;
47337;SDS011;33069;51.970;5.892;2023-03-16T05:17:51;8.38;;;4.90;;
47337;SDS011;33069;51.970;5.892;2023-03-16T05:20:18;10.82;;;5.28;;
47337;SDS011;33069;51.970;5.892;2023-03-16T05:22:45;9.23;;;5.22;;
47337;SDS011;33069;51.970;5.892;2023-03-16T05:25:12;10.65;;;5.45;;
47337;SDS011;33069;51.970;5.892;2023-03-16T05:27:43;9.07;;;4.60;;
47337;SDS011;33069;51.970;5.892;2023-03-16T05:30:10;8.60;;;5.53;;
47337;SDS011;33069;51.970;5.892;2023-03-16T05:32:37;8.75;;;5.20;;
47337;SDS011;33069;51.970;5.892;2023-03-16T05:35:03;7.68;;;5.07;;
47337;SDS011;33069;51.970;5.892;2023-03-16T05:37:31;10.20;;;5.88;;
47337;SDS011;33069;51.970;5.892;2023-03-16T05:39:58;6.88;;;4.80;;
47337;SDS011;33069;51.970;5.892;2023-03-16T05:42:24;8.85;;;4.82;;
47337;SDS011;33069;51.970;5.892;2023-03-16T05:44:52;8.90;;;4.88;;
47337;SDS011;33069;51.970;5.892;2023-03-16T05:47:18;11.00;;;4.88;;
47337;SDS011;33069;51.970;5.892;2023-03-16T05:49:44;10.43;;;5.03;;
47337;SDS011;33069;51.970;5.892;2023-03-16T05:52:10;8.30;;;5.22;;
47337;SDS011;33069;51.970;5.892;2023-03-16T05:54:36;9.10;;;4.90;;
47337;SDS011;33069;51.970;5.892;2023-03-16T05:57:02;13.20;;;5.30;;
47337;SDS011;33069;51.970;5.892;2023-03-16T05:59:27;7.18;;;4.78;;
47337;SDS011;33069;51.970;5.892;2023-03-16T06:01:53;7.93;;;4.80;;
47337;SDS011;33069;51.970;5.892;2023-03-16T06:04:19;10.45;;;5.32;;
47337;SDS011;33069;51.970;5.892;2023-03-16T06:06:45;8.80;;;5.18;;
47337;SDS011;33069;51.970;5.892;2023-03-16T06:09:11;8.48;;;5.45;;
47337;SDS011;33069;51.970;5.892;2023-03-16T06:11:37;7.30;;;4.38;;
47337;SDS011;33069;51.970;5.892;2023-03-16T06:14:02;7.38;;;4.55;;
47337;SDS011;33069;51.970;5.892;2023-03-16T06:16:28;7.45;;;4.97;;
47337;SDS011;33069;51.970;5.892;2023-03-16T06:18:53;7.18;;;4.50;;
47337;SDS011;33069;51.970;5.892;2023-03-16T06:21:20;9.88;;;5.03;;
47337;SDS011;33069;51.970;5.892;2023-03-16T06:23:47;6.68;;;4.55;;
47337;SDS011;33069;51.970;5.892;2023-03-16T06:26:13;8.02;;;5.20;;
47337;SDS011;33069;51.970;5.892;2023-03-16T06:28:39;13.38;;;4.72;;
47337;SDS011;33069;51.970;5.892;2023-03-16T06:31:05;10.73;;;5.40;;
47337;SDS011;33069;51.970;5.892;2023-03-16T06:33:31;10.77;;;4.97;;
47337;SDS011;33069;51.970;5.892;2023-03-16T06:35:57;6.40;;;4.22;;
47337;SDS011;33069;51.970;5.892;2023-03-16T06:38:23;7.45;;;4.22;;
47337;SDS011;33069;51.970;5.892;2023-03-16T06:40:52;9.75;;;4.55;;
47337;SDS011;33069;51.970;5.892;2023-03-16T06:43:18;9.18;;;4.80;;
47337;SDS011;33069;51.970;5.892;2023-03-16T06:45:44;6.40;;;4.72;;
47337;SDS011;33069;51.970;5.892;2023-03-16T06:48:09;10.70;;;4.88;;
47337;SDS011;33069;51.970;5.892;2023-03-16T06:50:35;8.95;;;4.95;;
47337;SDS011;33069;51.970;5.892;2023-03-16T06:53:01;7.28;;;4.90;;
47337;SDS011;33069;51.970;5.892;2023-03-16T06:55:27;8.02;;;5.22;;
47337;SDS011;33069;51.970;5.892;2023-03-16T06:57:52;9.07;;;5.22;;
47337;SDS011;33069;51.970;5.892;2023-03-16T07:00:18;10.00;;;5.82;;
47337;SDS011;33069;51.970;5.892;2023-03-16T07:02:44;11.90;;;5.30;;
47337;SDS011;33069;51.970;5.892;2023-03-16T07:05:10;10.50;;;5.05;;
47337;SDS011;33069;51.970;5.892;2023-03-16T07:07:39;9.95;;;5.47;;
47337;SDS011;33069;51.970;5.892;2023-03-16T07:10:08;13.50;;;5.60;;
47337;SDS011;33069;51.970;5.892;2023-03-16T07:12:39;12.02;;;5.80;;
47337;SDS011;33069;51.970;5.892;2023-03-16T07:15:06;8.80;;;5.65;;
47337;SDS011;33069;51.970;5.892;2023-03-16T07:17:32;10.77;;;5.45;;
47337;SDS011;33069;51.970;5.892;2023-03-16T07:19:57;9.75;;;6.28;;
47337;SDS011;33069;51.970;5.892;2023-03-16T07:22:23;9.10;;;6.35;;
47337;SDS011;33069;51.970;5.892;2023-03-16T07:24:49;8.98;;;6.43;;
47337;SDS011;33069;51.970;5.892;2023-03-16T07:27:20;9.27;;;5.78;;
47337;SDS011;33069;51.970;5.892;2023-03-16T07:29:47;10.15;;;5.07;;
47337;SDS011;33069;51.970;5.892;2023-03-16T07:32:13;10.30;;;6.15;;
47337;SDS011;33069;51.970;5.892;2023-03-16T07:34:39;13.68;;;6.40;;
47337;SDS011;33069;51.970;5.892;2023-03-16T07:37:06;13.10;;;5.80;;
47337;SDS011;33069;51.970;5.892;2023-03-16T07:39:33;10.18;;;5.60;;
47337;SDS011;33069;51.970;5.892;2023-03-16T07:41:59;9.43;;;6.32;;
47337;SDS011;33069;51.970;5.892;2023-03-16T07:44:25;12.13;;;7.07;;
47337;SDS011;33069;51.970;5.892;2023-03-16T07:46:51;10.05;;;7.00;;
47337;SDS011;33069;51.970;5.892;2023-03-16T07:49:17;11.52;;;7.28;;
47337;SDS011;33069;51.970;5.892;2023-03-16T07:51:43;9.35;;;6.72;;
47337;SDS011;33069;51.970;5.892;2023-03-16T07:54:09;11.38;;;6.80;;
47337;SDS011;33069;51.970;5.892;2023-03-16T07:56:35;10.98;;;6.35;;
47337;SDS011;33069;51.970;5.892;2023-03-16T07:59:01;15.40;;;6.97;;
47337;SDS011;33069;51.970;5.892;2023-03-16T08:01:27;11.65;;;6.55;;
47337;SDS011;33069;51.970;5.892;2023-03-16T08:03:52;8.77;;;6.00;;
47337;SDS011;33069;51.970;5.892;2023-03-16T08:06:18;11.48;;;6.20;;
47337;SDS011;33069;51.970;5.892;2023-03-16T08:08:45;10.25;;;6.32;;
47337;SDS011;33069;51.970;5.892;2023-03-16T08:11:11;12.82;;;6.03;;
47337;SDS011;33069;51.970;5.892;2023-03-16T08:13:38;11.27;;;6.00;;
47337;SDS011;33069;51.970;5.892;2023-03-16T08:16:07;8.77;;;5.85;;
47337;SDS011;33069;51.970;5.892;2023-03-16T08:18:34;7.05;;;6.00;;
47337;SDS011;33069;51.970;5.892;2023-03-16T08:21:01;12.60;;;7.38;;
47337;SDS011;33069;51.970;5.892;2023-03-16T08:23:27;13.88;;;6.55;;
47337;SDS011;33069;51.970;5.892;2023-03-16T08:25:54;9.55;;;5.63;;
47337;SDS011;33069;51.970;5.892;2023-03-16T08:28:21;9.77;;;5.70;;
47337;SDS011;33069;51.970;5.892;2023-03-16T08:30:47;9.23;;;5.80;;
47337;SDS011;33069;51.970;5.892;2023-03-16T08:33:14;10.50;;;5.55;;
47337;SDS011;33069;51.970;5.892;2023-03-16T08:35:42;11.90;;;5.68;;
47337;SDS011;33069;51.970;5.892;2023-03-16T08:38:09;8.73;;;5.53;;
47337;SDS011;33069;51.970;5.892;2023-03-16T08:40:35;8.85;;;6.28;;
47337;SDS011;33069;51.970;5.892;2023-03-16T08:43:02;9.30;;;5.50;;
47337;SDS011;33069;51.970;5.892;2023-03-16T08:45:28;9.80;;;5.32;;
47337;SDS011;33069;51.970;5.892;2023-03-16T08:47:54;9.30;;;5.50;;
47337;SDS011;33069;51.970;5.892;2023-03-16T08:50:20;8.77;;;5.28;;
47337;SDS011;33069;51.970;5.892;2023-03-16T08:52:46;10.93;;;6.25;;
47337;SDS011;33069;51.970;5.892;2023-03-16T08:55:13;9.75;;;5.80;;
47337;SDS011;33069;51.970;5.892;2023-03-16T08:57:39;10.45;;;4.97;;
47337;SDS011;33069;51.970;5.892;2023-03-16T09:00:06;9.30;;;5.45;;
47337;SDS011;33069;51.970;5.892;2023-03-16T09:02:42;7.70;;;5.47;;
47337;SDS011;33069;51.970;5.892;2023-03-16T09:05:09;7.85;;;4.68;;
47337;SDS011;33069;51.970;5.892;2023-03-16T09:07:36;10.90;;;5.28;;
47337;SDS011;33069;51.970;5.892;2023-03-16T09:10:04;6.70;;;4.53;;
47337;SDS011;33069;51.970;5.892;2023-03-16T09:12:36;7.93;;;4.90;;
47337;SDS011;33069;51.970;5.892;2023-03-16T09:15:02;7.10;;;5.18;;
47337;SDS011;33069;51.970;5.892;2023-03-16T09:17:29;7.53;;;5.57;;
47337;SDS011;33069;51.970;5.892;2023-03-16T09:19:54;8.75;;;4.90;;
47337;SDS011;33069;51.970;5.892;2023-03-16T09:22:21;5.45;;;4.80;;
47337;SDS011;33069;51.970;5.892;2023-03-16T09:24:48;7.85;;;4.68;;
47337;SDS011;33069;51.970;5.892;2023-03-16T09:27:14;7.70;;;4.45;;
47337;SDS011;33069;51.970;5.892;2023-03-16T09:29:41;8.85;;;4.93;;
47337;SDS011;33069;51.970;5.892;2023-03-16T09:32:07;8.27;;;4.38;;
47337;SDS011;33069;51.970;5.892;2023-03-16T09:34:33;10.95;;;4.93;;
47337;SDS011;33069;51.970;5.892;2023-03-16T09:36:59;7.72;;;4.55;;
47337;SDS011;33069;51.970;5.892;2023-03-16T09:39:25;6.47;;;4.18;;
47337;SDS011;33069;51.970;5.892;2023-03-16T09:41:58;7.57;;;4.15;;
47337;SDS011;33069;51.970;5.892;2023-03-16T09:47:35;7.75;;;4.60;;
47337;SDS011;33069;51.970;5.892;2023-03-16T09:50:04;8.13;;;4.68;;
47337;SDS011;33069;51.970;5.892;2023-03-16T09:57:38;8.13;;;4.20;;
47337;SDS011;33069;51.970;5.892;2023-03-16T10:05:35;9.73;;;4.45;;
47337;SDS011;33069;51.970;5.892;2023-03-16T10:08:12;6.93;;;4.40;;
47337;SDS011;33069;51.970;5.892;2023-03-16T10:13:16;6.53;;;4.03;;
47337;SDS011;33069;51.970;5.892;2023-03-16T10:15:47;7.18;;;4.20;;
47337;SDS011;33069;51.970;5.892;2023-03-16T10:18:17;6.20;;;4.53;;
47337;SDS011;33069;51.970;5.892;2023-03-16T10:20:52;6.38;;;4.60;;
47337;SDS011;33069;51.970;5.892;2023-03-16T10:23:20;7.95;;;4.57;;
47337;SDS011;33069;51.970;5.892;2023-03-16T10:25:54;11.55;;;4.90;;
47337;SDS011;33069;51.970;5.892;2023-03-16T10:28:24;12.63;;;4.90;;
47337;SDS011;33069;51.970;5.892;2023-03-16T10:30:52;7.07;;;4.28;;
47337;SDS011;33069;51.970;5.892;2023-03-16T10:33:30;8.23;;;4.03;;
47337;SDS011;33069;51.970;5.892;2023-03-16T10:36:03;9.80;;;5.25;;
47337;SDS011;33069;51.970;5.892;2023-03-16T10:38:53;7.55;;;4.10;;
47337;SDS011;33069;51.970;5.892;2023-03-16T10:41:26;7.50;;;4.03;;
47337;SDS011;33069;51.970;5.892;2023-03-16T10:43:57;12.52;;;4.18;;
47337;SDS011;33069;51.970;5.892;2023-03-16T10:49:00;14.45;;;4.82;;
47337;SDS011;33069;51.970;5.892;2023-03-16T10:51:35;6.53;;;4.38;;
47337;SDS011;33069;51.970;5.892;2023-03-16T10:54:12;6.38;;;4.68;;
47337;SDS011;33069;51.970;5.892;2023-03-16T10:56:43;6.15;;;4.38;;
47337;SDS011;33069;51.970;5.892;2023-03-16T11:02:02;6.97;;;4.68;;
47337;SDS011;33069;51.970;5.892;2023-03-16T11:04:46;10.65;;;4.85;;
47337;SDS011;33069;51.970;5.892;2023-03-16T11:07:17;10.18;;;4.65;;
47337;SDS011;33069;51.970;5.892;2023-03-16T11:09:44;8.40;;;4.97;;
47337;SDS011;33069;51.970;5.892;2023-03-16T11:15:12;9.43;;;4.93;;
47337;SDS011;33069;51.970;5.892;2023-03-16T11:17:41;6.90;;;4.90;;
47337;SDS011;33069;51.970;5.892;2023-03-16T11:20:12;8.85;;;4.30;;
47337;SDS011;33069;51.970;5.892;2023-03-16T11:22:45;6.55;;;5.15;;
47337;SDS011;33069;51.970;5.892;2023-03-16T11:25:17;7.53;;;4.55;;
47337;SDS011;33069;51.970;5.892;2023-03-16T11:30:40;9.45;;;5.40;;
47337;SDS011;33069;51.970;5.892;2023-03-16T11:33:26;9.32;;;5.60;;
47337;SDS011;33069;51.970;5.892;2023-03-16T11:39:02;8.35;;;5.47;;
47337;SDS011;33069;51.970;5.892;2023-03-16T11:42:12;10.27;;;5.10;;
47337;SDS011;33069;51.970;5.892;2023-03-16T11:56:33;5.07;;;4.57;;
47337;SDS011;33069;51.970;5.892;2023-03-16T12:02:04;9.40;;;4.88;;
47337;SDS011;33069;51.970;5.892;2023-03-16T12:16:31;11.02;;;5.70;;
47337;SDS011;33069;51.970;5.892;2023-03-16T12:19:25;9.80;;;5.00;;
47337;SDS011;33069;51.970;5.892;2023-03-16T12:22:03;8.00;;;4.78;;
47337;SDS011;33069;51.970;5.892;2023-03-16T12:24:40;7.80;;;4.60;;
47337;SDS011;33069;51.970;5.892;2023-03-16T12:27:19;9.23;;;5.25;;
47337;SDS011;33069;51.970;5.892;2023-03-16T12:29:51;7.00;;;4.50;;
47337;SDS011;33069;51.970;5.892;2023-03-16T12:32:35;6.22;;;4.95;;
47337;SDS011;33069;51.970;5.892;2023-03-16T12:38:02;5.88;;;4.32;;
47337;SDS011;33069;51.970;5.892;2023-03-16T12:40:42;9.90;;;4.40;;
47337;SDS011;33069;51.970;5.892;2023-03-16T12:46:07;9.27;;;4.07;;
47337;SDS011;33069;51.970;5.892;2023-03-16T12:48:46;6.45;;;4.25;;
47337;SDS011;33069;51.970;5.892;2023-03-16T12:51:16;8.30;;;4.65;;
47337;SDS011;33069;51.970;5.892;2023-03-16T12:53:51;5.47;;;4.40;;
47337;SDS011;33069;51.970;5.892;2023-03-16T12:56:32;7.57;;;3.75;;
47337;SDS011;33069;51.970;5.892;2023-03-16T12:59:04;8.25;;;4.10;;
47337;SDS011;33069;51.970;5.892;2023-03-16T13:01:40;8.63;;;4.40;;
47337;SDS011;33069;51.970;5.892;2023-03-16T13:06:33;11.07;;;4.13;;
47337;SDS011;33069;51.970;5.892;2023-03-16T13:09:00;6.68;;;4.30;;
47337;SDS011;33069;51.970;5.892;2023-03-16T13:11:38;6.10;;;4.45;;
47337;SDS011;33069;51.970;5.892;2023-03-16T13:17:02;10.20;;;5.05;;
47337;SDS011;33069;51.970;5.892;2023-03-16T13:20:03;11.27;;;5.43;;
47337;SDS011;33069;51.970;5.892;2023-03-16T13:22:40;6.95;;;5.30;;
47337;SDS011;33069;51.970;5.892;2023-03-16T13:25:13;10.65;;;5.28;;
47337;SDS011;33069;51.970;5.892;2023-03-16T13:27:47;8.25;;;4.60;;
47337;SDS011;33069;51.970;5.892;2023-03-16T13:32:46;6.15;;;4.43;;
47337;SDS011;33069;51.970;5.892;2023-03-16T13:35:13;6.00;;;4.47;;
47337;SDS011;33069;51.970;5.892;2023-03-16T13:37:41;7.57;;;4.50;;
47337;SDS011;33069;51.970;5.892;2023-03-16T13:42:48;6.20;;;4.15;;
47337;SDS011;33069;51.970;5.892;2023-03-16T13:45:27;6.45;;;4.20;;
47337;SDS011;33069;51.970;5.892;2023-03-16T13:47:57;5.53;;;4.28;;
47337;SDS011;33069;51.970;5.892;2023-03-16T13:50:24;7.00;;;4.35;;
47337;SDS011;33069;51.970;5.892;2023-03-16T13:52:57;5.95;;;4.22;;
47337;SDS011;33069;51.970;5.892;2023-03-16T13:55:30;5.95;;;3.67;;
47337;SDS011;33069;51.970;5.892;2023-03-16T13:57:58;7.75;;;3.88;;
47337;SDS011;33069;51.970;5.892;2023-03-16T14:00:35;7.72;;;4.55;;
47337;SDS011;33069;51.970;5.892;2023-03-16T14:03:10;12.10;;;4.57;;
47337;SDS011;33069;51.970;5.892;2023-03-16T14:05:40;8.25;;;4.35;;
47337;SDS011;33069;51.970;5.892;2023-03-16T14:08:13;8.88;;;4.80;;
47337;SDS011;33069;51.970;5.892;2023-03-16T14:10:40;6.28;;;4.35;;
47337;SDS011;33069;51.970;5.892;2023-03-16T14:13:08;10.18;;;5.28;;
47337;SDS011;33069;51.970;5.892;2023-03-16T14:15:48;10.52;;;5.15;;
47337;SDS011;33069;51.970;5.892;2023-03-16T14:18:18;8.30;;;4.78;;
47337;SDS011;33069;51.970;5.892;2023-03-16T14:20:53;9.00;;;4.90;;
47337;SDS011;33069;51.970;5.892;2023-03-16T14:23:23;6.40;;;4.38;;
47337;SDS011;33069;51.970;5.892;2023-03-16T14:25:57;8.80;;;5.13;;
47337;SDS011;33069;51.970;5.892;2023-03-16T14:28:27;8.00;;;5.03;;
47337;SDS011;33069;51.970;5.892;2023-03-16T14:31:03;7.00;;;4.35;;
47337;SDS011;33069;51.970;5.892;2023-03-16T14:33:32;7.70;;;5.00;;
47337;SDS011;33069;51.970;5.892;2023-03-16T14:36:05;6.07;;;4.53;;
47337;SDS011;33069;51.970;5.892;2023-03-16T14:38:36;6.72;;;4.93;;
47337;SDS011;33069;51.970;5.892;2023-03-16T14:43:33;10.60;;;4.82;;
47337;SDS011;33069;51.970;5.892;2023-03-16T14:46:03;6.32;;;5.72;;
47337;SDS011;33069;51.970;5.892;2023-03-16T14:48:30;5.80;;;4.72;;
47337;SDS011;33069;51.970;5.892;2023-03-16T14:50:57;7.35;;;5.18;;
47337;SDS011;33069;51.970;5.892;2023-03-16T14:53:26;7.45;;;4.95;;
47337;SDS011;33069;51.970;5.892;2023-03-16T14:55:56;5.03;;;4.53;;
47337;SDS011;33069;51.970;5.892;2023-03-16T14:58:22;6.47;;;5.18;;
47337;SDS011;33069;51.970;5.892;2023-03-16T15:00:49;6.55;;;5.00;;
47337;SDS011;33069;51.970;5.892;2023-03-16T15:03:17;9.60;;;5.65;;
47337;SDS011;33069;51.970;5.892;2023-03-16T15:05:57;6.25;;;5.18;;
47337;SDS011;33069;51.970;5.892;2023-03-16T15:08:25;6.20;;;5.60;;
47337;SDS011;33069;51.970;5.892;2023-03-16T15:10:57;9.13;;;5.75;;
47337;SDS011;33069;51.970;5.892;2023-03-16T15:13:29;7.03;;;5.32;;
47337;SDS011;33069;51.970;5.892;2023-03-16T15:16:15;6.13;;;5.32;;
47337;SDS011;33069;51.970;5.892;2023-03-16T15:18:41;5.93;;;5.20;;
47337;SDS011;33069;51.970;5.892;2023-03-16T15:21:08;9.27;;;5.25;;
47337;SDS011;33069;51.970;5.892;2023-03-16T15:23:37;7.43;;;5.90;;
47337;SDS011;33069;51.970;5.892;2023-03-16T15:26:03;6.03;;;5.43;;
47337;SDS011;33069;51.970;5.892;2023-03-16T15:28:31;8.00;;;5.63;;
47337;SDS011;33069;51.970;5.892;2023-03-16T15:31:00;9.00;;;5.80;;
47337;SDS011;33069;51.970;5.892;2023-03-16T15:33:26;7.55;;;5.70;;
47337;SDS011;33069;51.970;5.892;2023-03-16T15:35:53;7.45;;;5.72;;
47337;SDS011;33069;51.970;5.892;2023-03-16T15:38:28;9.80;;;6.15;;
47337;SDS011;33069;51.970;5.892;2023-03-16T15:40:56;6.95;;;6.25;;
47337;SDS011;33069;51.970;5.892;2023-03-16T15:43:26;6.57;;;5.97;;
47337;SDS011;33069;51.970;5.892;2023-03-16T15:45:54;7.63;;;6.30;;
47337;SDS011;33069;51.970;5.892;2023-03-16T15:48:21;6.70;;;6.10;;
47337;SDS011;33069;51.970;5.892;2023-03-16T15:50:52;9.38;;;6.15;;
47337;SDS011;33069;51.970;5.892;2023-03-16T15:53:24;7.78;;;6.05;;
47337;SDS011;33069;51.970;5.892;2023-03-16T15:56:03;8.15;;;6.20;;
47337;SDS011;33069;51.970;5.892;2023-03-16T15:58:31;6.75;;;6.15;;
47337;SDS011;33069;51.970;5.892;2023-03-16T16:01:00;7.15;;;6.50;;
47337;SDS011;33069;51.970;5.892;2023-03-16T16:03:27;6.70;;;6.13;;
47337;SDS011;33069;51.970;5.892;2023-03-16T16:05:53;7.28;;;6.60;;
47337;SDS011;33069;51.970;5.892;2023-03-16T16:08:19;7.28;;;6.57;;
47337;SDS011;33069;51.970;5.892;2023-03-16T16:10:45;8.63;;;6.50;;
47337;SDS011;33069;51.970;5.892;2023-03-16T16:13:23;10.90;;;6.70;;
47337;SDS011;33069;51.970;5.892;2023-03-16T16:15:51;7.30;;;6.60;;
47337;SDS011;33069;51.970;5.892;2023-03-16T16:20:58;7.40;;;6.57;;
47337;SDS011;33069;51.970;5.892;2023-03-16T16:23:25;6.97;;;6.38;;
47337;SDS011;33069;51.970;5.892;2023-03-16T16:25:55;7.07;;;6.32;;
47337;SDS011;33069;51.970;5.892;2023-03-16T16:28:24;9.35;;;6.28;;
47337;SDS011;33069;51.970;5.892;2023-03-16T16:30:53;10.20;;;5.70;;